createdAt,value
2023-02-18T00:01:36.755Z,100719.00
2023-02-18T00:04:04.829Z,100715.00
2023-02-18T00:06:36.958Z,100704.00
2023-02-18T00:09:06.568Z,100710.00
2023-02-18T00:11:36.092Z,100712.00
2023-02-18T00:14:07.239Z,100717.00
2023-02-18T00:16:35.307Z,100710.00
2023-02-18T00:19:05.997Z,100709.00
2023-02-18T00:21:35.483Z,100710.00
2023-02-18T00:24:05.331Z,100696.00
2023-02-18T00:26:33.558Z,100700.00
2023-02-18T00:29:01.992Z,100698.00
2023-02-18T00:31:32.865Z,100695.00
2023-02-18T00:34:03.616Z,100699.00
2023-02-18T00:36:31.891Z,100700.00
2023-02-18T00:39:04.138Z,100692.00
2023-02-18T00:41:34.747Z,100697.00
2023-02-18T00:44:02.852Z,100693.00
2023-02-18T00:46:30.954Z,100702.00
2023-02-18T00:49:01.849Z,100700.00
2023-02-18T00:51:29.863Z,100695.00
2023-02-18T00:53:59.403Z,100691.00
2023-02-18T00:56:27.362Z,100681.00
2023-02-18T00:58:55.605Z,100692.00
2023-02-18T01:01:24.572Z,100693.00
2023-02-18T01:03:52.417Z,100709.00
2023-02-18T01:06:22.325Z,100705.00
2023-02-18T01:08:50.527Z,100709.00
2023-02-18T01:11:18.547Z,100704.00
2023-02-18T01:13:46.973Z,100705.00
2023-02-18T01:16:14.804Z,100702.00
2023-02-18T01:18:42.864Z,100702.00
2023-02-18T01:21:11.252Z,100707.00
2023-02-18T01:23:40.636Z,100706.00
2023-02-18T01:26:09.720Z,100701.00
2023-02-18T01:28:40.430Z,100699.00
2023-02-18T01:31:10.847Z,100705.00
2023-02-18T01:33:39.227Z,100710.00
2023-02-18T01:36:08.430Z,100704.00
2023-02-18T01:38:36.862Z,100699.00
2023-02-18T01:41:04.945Z,100693.00
2023-02-18T01:43:33.800Z,100696.00
2023-02-18T01:46:04.950Z,100683.00
2023-02-18T01:48:43.320Z,100685.00
2023-02-18T01:51:24.443Z,100698.00
2023-02-18T01:54:15.606Z,100686.00
2023-02-18T01:56:50.721Z,100696.00
2023-02-18T01:59:50.146Z,100696.00
2023-02-18T02:02:23.488Z,100694.00
2023-02-18T02:04:51.832Z,100704.00
2023-02-18T02:07:21.274Z,100697.00
2023-02-18T02:09:50.590Z,100689.00
2023-02-18T02:12:26.021Z,100698.00
2023-02-18T02:14:59.716Z,100687.00
2023-02-18T02:18:00.937Z,100685.00
2023-02-18T02:20:40.553Z,100694.00
2023-02-18T02:23:17.354Z,100681.00
2023-02-18T02:25:45.045Z,100682.00
2023-02-18T02:28:15.543Z,100669.00
2023-02-18T02:31:07.086Z,100681.00
2023-02-18T02:33:45.809Z,100669.00
2023-02-18T02:36:24.398Z,100676.00
2023-02-18T02:38:59.893Z,100675.00
2023-02-18T02:41:36.712Z,100666.00
2023-02-18T02:44:18.555Z,100673.00
2023-02-18T02:46:48.573Z,100663.00
2023-02-18T02:49:20.571Z,100668.00
2023-02-18T02:51:51.250Z,100669.00
2023-02-18T02:54:25.105Z,100673.00
2023-02-18T02:57:16.318Z,100663.00
2023-02-18T03:00:05.217Z,100673.00
2023-02-18T03:03:24.405Z,100665.00
2023-02-18T03:06:14.541Z,100668.00
2023-02-18T03:09:00.163Z,100669.00
2023-02-18T03:11:30.709Z,100664.00
2023-02-18T03:14:29.130Z,100668.00
2023-02-18T03:17:11.663Z,100655.00
2023-02-18T03:19:55.843Z,100654.00
2023-02-18T03:22:31.806Z,100649.00
2023-02-18T03:25:02.931Z,100645.00
2023-02-18T03:27:35.308Z,100642.00
2023-02-18T03:30:13.732Z,100649.00
2023-02-18T03:32:42.213Z,100638.00
2023-02-18T03:35:17.845Z,100647.00
2023-02-18T03:37:53.231Z,100643.00
2023-02-18T03:40:23.796Z,100645.00
2023-02-18T03:42:51.666Z,100641.00
2023-02-18T03:45:19.626Z,100635.00
2023-02-18T03:47:47.606Z,100634.00
2023-02-18T03:50:17.136Z,100640.00
2023-02-18T03:52:45.084Z,100626.00
2023-02-18T03:55:13.293Z,100622.00
2023-02-18T03:57:41.426Z,100617.00
2023-02-18T04:00:10.836Z,100619.00
2023-02-18T04:02:41.672Z,100607.00
2023-02-18T04:05:09.862Z,100603.00
2023-02-18T04:07:37.765Z,100604.00
2023-02-18T04:10:06.771Z,100601.00
2023-02-18T04:12:34.663Z,100609.00
2023-02-18T04:15:02.529Z,100611.00
2023-02-18T04:17:30.472Z,100601.00
2023-02-18T04:45:47.293Z,100592.00
2023-02-18T04:48:15.225Z,100583.00
2023-02-18T04:50:44.073Z,100591.00
2023-02-18T04:53:12.084Z,100586.00
2023-02-18T04:55:40.083Z,100581.00
2023-02-18T04:58:07.942Z,100588.00
2023-02-18T05:00:36.065Z,100580.00
2023-02-18T05:03:29.984Z,100583.00
2023-02-18T05:05:58.228Z,100570.00
2023-02-18T05:08:26.049Z,100574.00
2023-02-18T05:10:53.862Z,100574.00
2023-02-18T05:13:23.022Z,100564.00
2023-02-18T05:15:51.160Z,100553.00
2023-02-18T05:18:19.075Z,100544.00
2023-02-18T05:20:47.017Z,100550.00
2023-02-18T05:23:15.018Z,100538.00
2023-02-18T05:25:42.739Z,100536.00
2023-02-18T05:28:10.506Z,100533.00
2023-02-18T05:30:38.984Z,100525.00
2023-02-18T05:33:06.768Z,100525.00
2023-02-18T05:35:34.592Z,100519.00
2023-02-18T05:38:02.545Z,100515.00
2023-02-18T05:40:30.238Z,100509.00
2023-02-18T05:42:58.067Z,100513.00
2023-02-18T05:45:25.886Z,100508.00
2023-02-18T05:47:53.590Z,100505.00
2023-02-18T05:50:21.652Z,100499.00
2023-02-18T05:52:49.592Z,100499.00
2023-02-18T05:55:17.322Z,100497.00
2023-02-18T05:57:45.242Z,100498.00
2023-02-18T06:00:13.859Z,100487.00
2023-02-18T06:02:41.747Z,100483.00
2023-02-18T06:05:10.085Z,100486.00
2023-02-18T06:07:38.371Z,100478.00
2023-02-18T06:10:07.374Z,100480.00
2023-02-18T06:12:35.178Z,100477.00
2023-02-18T06:15:03.162Z,100473.00
2023-02-18T06:17:31.010Z,100462.00
2023-02-18T06:19:58.810Z,100466.00
2023-02-18T06:22:26.766Z,100455.00
2023-02-18T06:24:54.683Z,100439.00
2023-02-18T06:27:22.605Z,100445.00
2023-02-18T06:29:50.445Z,100438.00
2023-02-18T06:32:18.407Z,100444.00
2023-02-18T06:34:46.156Z,100435.00
2023-02-18T06:37:14.114Z,100440.00
2023-02-18T06:39:41.956Z,100432.00
2023-02-18T06:42:09.993Z,100432.00
2023-02-18T06:44:38.220Z,100425.00
2023-02-18T06:47:05.947Z,100420.00
2023-02-18T06:49:33.675Z,100415.00
2023-02-18T06:52:01.435Z,100410.00
2023-02-18T06:54:29.318Z,100398.00
2023-02-18T06:56:56.991Z,100404.00
2023-02-18T06:59:24.978Z,100403.00
2023-02-18T07:01:52.892Z,100395.00
2023-02-18T07:04:20.729Z,100394.00
2023-02-18T07:06:48.441Z,100391.00
2023-02-18T07:09:16.241Z,100380.00
2023-02-18T07:11:44.072Z,100382.00
2023-02-18T07:14:14.961Z,100358.00
2023-02-18T07:16:43.078Z,100359.00
2023-02-18T07:19:10.923Z,100346.00
2023-02-18T07:21:39.851Z,100347.00
2023-02-18T07:24:07.848Z,100337.00
2023-02-18T07:26:35.596Z,100337.00
2023-02-18T07:29:03.364Z,100341.00
2023-02-18T07:31:31.312Z,100331.00
2023-02-18T07:33:59.266Z,100320.00
2023-02-18T07:36:26.975Z,100316.00
2023-02-18T07:38:54.883Z,100311.00
2023-02-18T07:41:23.536Z,100306.00
2023-02-18T07:43:51.442Z,100306.00
2023-02-18T07:46:19.341Z,100300.00
2023-02-18T07:48:47.106Z,100297.00
2023-02-18T07:51:15.016Z,100299.00
2023-02-18T07:53:43.440Z,100292.00
2023-02-18T07:56:11.210Z,100284.00
2023-02-18T07:58:39.941Z,100282.00
2023-02-18T08:01:13.000Z,100285.00
2023-02-18T08:03:40.883Z,100279.00
2023-02-18T08:06:09.594Z,100281.00
2023-02-18T08:08:37.785Z,100268.00
2023-02-18T08:11:18.602Z,100264.00
2023-02-18T08:13:48.457Z,100263.00
2023-02-18T08:16:18.087Z,100254.00
2023-02-18T08:18:48.150Z,100252.00
2023-02-18T08:21:16.954Z,100247.00
2023-02-18T08:23:45.121Z,100241.00
2023-02-18T08:26:13.518Z,100232.00
2023-02-18T08:28:45.692Z,100235.00
2023-02-18T08:31:25.802Z,100234.00
2023-02-18T08:33:55.527Z,100231.00
2023-02-18T08:36:23.788Z,100229.00
2023-02-18T08:38:51.800Z,100221.00
2023-02-18T08:41:19.774Z,100232.00
2023-02-18T08:43:48.352Z,100234.00
2023-02-18T08:46:25.209Z,100235.00
2023-02-18T08:49:01.603Z,100234.00
2023-02-18T08:51:32.565Z,100224.00
2023-02-18T08:54:01.748Z,100218.00
2023-02-18T08:56:29.721Z,100216.00
2023-02-18T08:58:57.635Z,100214.00
2023-02-18T09:01:25.557Z,100221.00
2023-02-18T09:03:53.637Z,100207.00
2023-02-18T09:06:21.577Z,100198.00
2023-02-18T09:08:49.650Z,100199.00
2023-02-18T09:11:17.919Z,100209.00
2023-02-18T09:13:46.231Z,100201.00
2023-02-18T09:16:18.597Z,100192.00
2023-02-18T09:18:47.974Z,100193.00
2023-02-18T09:21:17.077Z,100186.00
2023-02-18T09:23:45.008Z,100187.00
2023-02-18T09:26:16.838Z,100183.00
2023-02-18T09:28:44.699Z,100179.00
2023-02-18T09:31:16.588Z,100176.00
2023-02-18T09:33:46.864Z,100175.00
2023-02-18T09:36:15.825Z,100190.00
2023-02-18T09:38:44.167Z,100168.00
2023-02-18T09:41:38.466Z,100173.00
2023-02-18T09:44:14.814Z,100164.00
2023-02-18T09:46:57.807Z,100154.00
2023-02-18T09:49:37.817Z,100151.00
2023-02-18T09:52:13.701Z,100146.00
2023-02-18T09:54:41.545Z,100134.00
2023-02-18T09:57:37.190Z,100146.00
2023-02-18T10:00:11.706Z,100147.00
2023-02-18T10:02:45.909Z,100142.00
2023-02-18T10:05:15.297Z,100137.00
2023-02-18T10:07:46.941Z,100139.00
2023-02-18T10:10:31.459Z,100142.00
2023-02-18T10:12:59.686Z,100139.00
2023-02-18T10:15:30.883Z,100135.00
2023-02-18T10:17:59.527Z,100133.00
2023-02-18T10:20:29.906Z,100133.00
2023-02-18T10:23:00.878Z,100115.00
2023-02-18T10:25:29.986Z,100125.00
2023-02-18T10:27:58.683Z,100128.00
2023-02-18T10:30:38.438Z,100123.00
2023-02-18T10:33:31.208Z,100128.00
2023-02-18T10:36:21.695Z,100131.00
2023-02-18T10:39:02.485Z,100127.00
2023-02-18T10:41:48.675Z,100137.00
2023-02-18T10:44:19.397Z,100119.00
2023-02-18T10:46:59.882Z,100129.00
2023-02-18T10:49:49.793Z,100134.00
2023-02-18T10:52:19.547Z,100123.00
2023-02-18T10:54:53.154Z,100113.00
2023-02-18T10:57:24.078Z,100100.00
2023-02-18T11:00:15.190Z,100103.00
2023-02-18T11:02:43.523Z,100097.00
2023-02-18T11:05:23.675Z,100087.00
2023-02-18T11:07:53.932Z,100090.00
2023-02-18T11:10:26.073Z,100092.00
2023-02-18T11:13:01.231Z,100084.00
2023-02-18T11:15:30.138Z,100087.00
2023-02-18T11:18:12.108Z,100079.00
2023-02-18T11:20:40.421Z,100097.00
2023-02-18T11:23:08.202Z,100092.00
2023-02-18T11:25:38.102Z,100081.00
2023-02-18T11:28:07.142Z,100064.00
2023-02-18T11:30:37.540Z,100084.00
2023-02-18T11:33:16.124Z,100087.00
2023-02-18T11:35:59.542Z,100095.00
2023-02-18T11:38:36.585Z,100083.00
2023-02-18T11:41:12.421Z,100089.00
2023-02-18T11:43:51.606Z,100087.00
2023-02-18T11:46:27.745Z,100079.00
2023-02-18T11:48:56.210Z,100077.00
2023-02-18T11:51:36.970Z,100076.00
2023-02-18T11:54:23.041Z,100065.00
2023-02-18T11:57:01.199Z,100069.00
2023-02-18T11:59:33.029Z,100068.00
2023-02-18T12:02:22.846Z,100074.00
2023-02-18T12:05:05.511Z,100051.00
2023-02-18T12:07:47.429Z,100075.00
2023-02-18T12:10:30.410Z,100061.00
2023-02-18T12:13:17.938Z,100053.00
2023-02-18T12:15:45.916Z,100048.00
2023-02-18T12:18:44.607Z,100075.00
2023-02-18T12:21:24.192Z,100085.00
2023-02-18T12:24:16.533Z,100082.00
2023-02-18T12:26:49.861Z,100075.00
2023-02-18T12:29:36.715Z,100078.00
2023-02-18T12:32:26.679Z,100070.00
2023-02-18T12:35:09.301Z,100053.00
2023-02-18T12:37:49.759Z,100053.00
2023-02-18T12:40:37.739Z,100057.00
2023-02-18T12:43:17.977Z,100057.00
2023-02-18T12:45:51.122Z,100050.00
2023-02-18T12:48:22.838Z,100056.00
2023-02-18T12:51:18.599Z,100067.00
2023-02-18T12:54:26.463Z,100055.00
2023-02-18T12:57:14.897Z,100060.00
2023-02-18T12:59:58.164Z,100052.00
2023-02-18T13:03:14.630Z,100063.00
2023-02-18T13:06:02.285Z,100061.00
2023-02-18T13:08:30.275Z,100069.00
2023-02-18T13:11:11.602Z,100061.00
2023-02-18T13:13:49.712Z,100075.00
2023-02-18T13:16:20.343Z,100081.00
2023-02-18T13:19:20.512Z,100088.00
2023-02-18T13:21:51.330Z,100075.00
2023-02-18T13:24:30.142Z,100079.00
2023-02-18T13:27:22.320Z,100083.00
2023-02-18T13:30:10.269Z,100083.00
2023-02-18T13:32:51.309Z,100082.00
2023-02-18T13:35:24.048Z,100090.00
2023-02-18T13:38:19.764Z,100084.00
2023-02-18T13:40:47.966Z,100070.00
2023-02-18T13:43:27.752Z,100082.00
2023-02-18T13:46:09.110Z,100096.00
2023-02-18T13:48:46.298Z,100087.00
2023-02-18T13:51:29.382Z,100088.00
2023-02-18T13:54:27.827Z,100084.00
2023-02-18T13:57:26.545Z,100091.00
2023-02-18T14:00:17.955Z,100100.00
2023-02-18T14:03:00.657Z,100079.00
2023-02-18T14:05:40.768Z,100097.00
2023-02-18T14:08:31.954Z,100101.00
2023-02-18T14:11:14.982Z,100110.00
2023-02-18T14:13:44.558Z,100101.00
2023-02-18T14:16:12.971Z,100104.00
2023-02-18T14:18:40.795Z,100081.00
2023-02-18T14:21:14.752Z,100101.00
2023-02-18T14:23:44.878Z,100098.00
2023-02-18T14:26:19.494Z,100095.00
2023-02-18T14:28:55.435Z,100095.00
2023-02-18T14:31:32.487Z,100103.00
2023-02-18T14:34:24.536Z,100096.00
2023-02-18T14:37:04.397Z,100097.00
2023-02-18T14:39:42.646Z,100111.00
2023-02-18T14:42:28.813Z,100106.00
2023-02-18T14:45:38.189Z,100122.00
2023-02-18T14:48:36.836Z,100125.00
2023-02-18T14:51:05.319Z,100125.00
2023-02-18T14:53:34.400Z,100128.00
2023-02-18T14:56:05.542Z,100124.00
2023-02-18T14:58:37.699Z,100129.00
2023-02-18T15:01:22.593Z,100139.00
2023-02-18T15:03:51.731Z,100155.00
2023-02-18T15:06:24.259Z,100140.00
2023-02-18T15:08:52.220Z,100147.00
2023-02-18T15:11:23.017Z,100155.00
2023-02-18T15:13:51.144Z,100163.00
2023-02-18T15:16:33.527Z,100169.00
2023-02-18T15:19:07.045Z,100182.00
2023-02-18T15:21:43.555Z,100182.00
2023-02-18T15:24:24.574Z,100187.00
2023-02-18T15:26:52.989Z,100187.00
2023-02-18T15:29:24.405Z,100192.00
2023-02-18T15:31:52.362Z,100190.00
2023-02-18T15:34:37.675Z,100197.00
2023-02-18T15:37:08.179Z,100205.00
2023-02-18T15:39:38.844Z,100202.00
2023-02-18T15:42:15.645Z,100198.00
2023-02-18T15:44:48.620Z,100208.00
2023-02-18T15:47:17.754Z,100208.00
2023-02-18T15:49:55.039Z,100219.00
2023-02-18T15:52:31.530Z,100211.00
2023-02-18T15:55:05.503Z,100212.00
2023-02-18T15:57:36.874Z,100226.00
2023-02-18T16:00:29.362Z,100225.00
2023-02-18T16:03:21.605Z,100226.00
2023-02-18T16:05:50.765Z,100228.00
2023-02-18T16:08:26.994Z,100218.00
2023-02-18T16:11:02.736Z,100224.00
2023-02-18T16:13:31.700Z,100223.00
2023-02-18T16:16:01.311Z,100231.00
2023-02-18T16:18:30.497Z,100227.00
2023-02-18T16:21:07.393Z,100226.00
2023-02-18T16:23:43.918Z,100231.00
2023-02-18T16:26:24.126Z,100231.00
2023-02-18T16:28:53.416Z,100230.00
2023-02-18T16:31:22.039Z,100233.00
2023-02-18T16:33:50.976Z,100246.00
2023-02-18T16:36:19.196Z,100244.00
2023-02-18T16:38:47.238Z,100242.00
2023-02-18T16:41:16.034Z,100246.00
2023-02-18T16:43:43.917Z,100247.00
2023-02-18T16:46:19.802Z,100237.00
2023-02-18T16:48:50.537Z,100248.00
2023-02-18T16:51:21.510Z,100264.00
2023-02-18T16:53:49.519Z,100261.00
2023-02-18T16:56:25.558Z,100264.00
2023-02-18T16:58:53.657Z,100264.00
2023-02-18T17:01:30.522Z,100273.00
2023-02-18T17:03:59.793Z,100274.00
2023-02-18T17:06:28.873Z,100274.00
2023-02-18T17:08:56.879Z,100258.00
2023-02-18T17:11:28.763Z,100265.00
2023-02-18T17:14:00.767Z,100266.00
2023-02-18T17:16:29.025Z,100276.00
2023-02-18T17:18:56.886Z,100275.00
2023-02-18T17:21:26.455Z,100273.00
2023-02-18T17:23:54.269Z,100283.00
2023-02-18T17:26:25.096Z,100278.00
2023-02-18T17:28:54.091Z,100272.00
2023-02-18T17:31:26.404Z,100264.00
2023-02-18T17:34:01.586Z,100269.00
2023-02-18T17:36:29.459Z,100278.00
2023-02-18T17:39:01.557Z,100278.00
2023-02-18T17:41:30.766Z,100287.00
2023-02-18T17:43:58.610Z,100299.00
2023-02-18T17:46:26.516Z,100299.00
2023-02-18T17:48:54.326Z,100287.00
2023-02-18T17:51:27.228Z,100297.00
2023-02-18T17:53:55.311Z,100304.00
2023-02-18T17:56:23.649Z,100297.00
2023-02-18T17:58:54.056Z,100306.00
2023-02-18T18:01:24.977Z,100311.00
2023-02-18T18:03:55.445Z,100312.00
2023-02-18T18:06:23.088Z,100315.00
2023-02-18T18:08:51.468Z,100313.00
2023-02-18T18:11:25.099Z,100324.00
2023-02-18T18:13:53.502Z,100324.00
2023-02-18T18:16:21.943Z,100321.00
2023-02-18T18:18:49.825Z,100326.00
2023-02-18T18:21:25.210Z,100337.00
2023-02-18T18:23:53.174Z,100336.00
2023-02-18T18:26:21.115Z,100342.00
2023-02-18T18:28:49.043Z,100344.00
2023-02-18T18:31:18.916Z,100340.00
2023-02-18T18:33:49.120Z,100343.00
2023-02-18T18:36:18.802Z,100346.00
2023-02-18T18:38:47.166Z,100340.00
2023-02-18T18:41:18.007Z,100339.00
2023-02-18T18:43:46.327Z,100333.00
2023-02-18T18:46:14.937Z,100337.00
2023-02-18T18:48:43.024Z,100340.00
2023-02-18T18:51:25.811Z,100340.00
2023-02-18T18:53:53.711Z,100344.00
2023-02-18T18:56:22.266Z,100340.00
2023-02-18T18:58:50.744Z,100350.00
2023-02-18T19:01:27.720Z,100351.00
2023-02-18T19:03:55.738Z,100350.00
2023-02-18T19:06:23.821Z,100354.00
2023-02-18T19:08:51.913Z,100362.00
2023-02-18T19:11:19.846Z,100351.00
2023-02-18T19:13:47.718Z,100351.00
2023-02-18T19:16:17.928Z,100359.00
2023-02-18T19:18:46.371Z,100363.00
2023-02-18T19:21:14.775Z,100365.00
2023-02-18T19:23:42.972Z,100366.00
2023-02-18T19:26:11.396Z,100370.00
2023-02-18T19:28:39.332Z,100365.00
2023-02-18T19:31:11.642Z,100371.00
2023-02-18T19:33:40.312Z,100373.00
2023-02-18T19:36:12.244Z,100366.00
2023-02-18T19:38:41.553Z,100361.00
2023-02-18T19:41:18.627Z,100359.00
2023-02-18T19:43:49.179Z,100358.00
2023-02-18T19:46:18.652Z,100366.00
2023-02-18T19:48:52.665Z,100366.00
2023-02-18T19:51:26.329Z,100376.00
2023-02-18T19:53:54.895Z,100360.00
2023-02-18T19:56:24.562Z,100356.00
2023-02-18T19:58:55.187Z,100360.00
2023-02-18T20:01:23.189Z,100366.00
2023-02-18T20:03:51.082Z,100366.00
2023-02-18T20:06:20.313Z,100366.00
2023-02-18T20:08:48.759Z,100372.00
2023-02-18T20:11:19.870Z,100380.00
2023-02-18T20:13:48.730Z,100370.00
2023-02-18T20:16:16.644Z,100370.00
2023-02-18T20:18:44.483Z,100382.00
2023-02-18T20:21:15.360Z,100380.00
2023-02-18T20:23:43.271Z,100390.00
2023-02-18T20:26:13.243Z,100385.00
2023-02-18T20:28:41.217Z,100379.00
2023-02-18T20:31:14.053Z,100387.00
2023-02-18T20:33:42.861Z,100390.00
2023-02-18T20:36:14.294Z,100387.00
2023-02-18T20:38:42.564Z,100371.00
2023-02-18T20:41:17.805Z,100376.00
2023-02-18T20:43:46.341Z,100371.00
2023-02-18T20:46:19.563Z,100362.00
2023-02-18T20:48:48.403Z,100366.00
2023-02-18T20:51:18.905Z,100383.00
2023-02-18T20:53:47.696Z,100378.00
2023-02-18T20:56:15.937Z,100386.00
2023-02-18T20:58:43.759Z,100376.00
2023-02-18T21:01:13.321Z,100371.00
2023-02-18T21:03:42.316Z,100376.00
2023-02-18T21:06:13.940Z,100378.00
2023-02-18T21:08:42.079Z,100379.00
2023-02-18T21:11:12.616Z,100375.00
2023-02-18T21:13:40.756Z,100369.00
2023-02-18T21:16:09.631Z,100376.00
2023-02-18T21:18:37.443Z,100371.00
2023-02-18T21:21:06.924Z,100375.00
2023-02-18T21:23:35.224Z,100376.00
2023-02-18T21:26:06.809Z,100381.00
2023-02-18T21:28:34.976Z,100371.00
2023-02-18T21:31:03.102Z,100381.00
2023-02-18T21:33:30.999Z,100382.00
2023-02-18T21:36:03.264Z,100386.00
2023-02-18T21:38:31.151Z,100388.00
2023-02-18T21:40:59.028Z,100375.00
2023-02-18T21:43:29.242Z,100370.00
2023-02-18T21:46:07.987Z,100372.00
2023-02-18T21:48:54.368Z,100367.00
2023-02-18T21:51:41.151Z,100379.00
2023-02-18T21:54:11.396Z,100386.00
2023-02-18T21:56:40.339Z,100376.00
2023-02-18T21:59:08.231Z,100381.00
2023-02-18T22:01:36.220Z,100388.00
2023-02-18T22:04:04.424Z,100374.00
2023-02-18T22:06:32.326Z,100363.00
2023-02-18T22:09:04.355Z,100361.00
2023-02-18T22:11:33.391Z,100362.00
2023-02-18T22:14:01.766Z,100355.00
2023-02-18T22:16:29.859Z,100356.00
2023-02-18T22:18:58.500Z,100355.00
2023-02-18T22:21:26.502Z,100357.00
2023-02-18T22:23:54.833Z,100360.00
2023-02-18T22:26:23.157Z,100367.00
2023-02-18T22:28:56.176Z,100368.00
2023-02-18T22:31:25.495Z,100377.00
2023-02-18T22:33:54.191Z,100370.00
2023-02-18T22:36:23.753Z,100372.00
2023-02-18T22:38:51.902Z,100365.00
2023-02-18T22:41:21.439Z,100365.00
2023-02-18T22:43:53.350Z,100367.00
2023-02-18T22:46:21.135Z,100365.00
2023-02-18T22:48:49.068Z,100364.00
2023-02-18T22:51:18.537Z,100365.00
2023-02-18T22:53:46.891Z,100362.00
2023-02-18T22:56:16.539Z,100360.00
2023-02-18T22:58:47.452Z,100362.00
2023-02-18T23:01:29.899Z,100349.00
2023-02-18T23:03:59.515Z,100354.00
2023-02-18T23:06:27.526Z,100354.00
2023-02-18T23:08:55.836Z,100344.00
2023-02-18T23:11:23.742Z,100341.00
2023-02-18T23:14:10.342Z,100340.00
2023-02-18T23:16:57.007Z,100339.00
2023-02-18T23:19:26.751Z,100340.00
2023-02-18T23:21:54.961Z,100344.00
2023-02-18T23:24:23.017Z,100343.00
2023-02-18T23:26:51.084Z,100335.00
2023-02-18T23:29:19.010Z,100345.00
2023-02-18T23:31:46.863Z,100342.00
2023-02-18T23:34:16.278Z,100334.00
2023-02-18T23:36:44.568Z,100334.00
2023-02-18T23:39:13.672Z,100338.00
2023-02-18T23:41:41.751Z,100331.00
2023-02-18T23:44:11.849Z,100334.00
2023-02-18T23:46:40.442Z,100331.00
2023-02-18T23:49:08.343Z,100335.00
2023-02-18T23:51:36.463Z,100339.00
2023-02-18T23:54:05.005Z,100338.00
2023-02-18T23:56:33.363Z,100335.00
2023-02-18T23:59:03.262Z,100319.00
